createdAt,value
2023-01-03T00:00:17.719Z,162.85
2023-01-03T00:02:48.573Z,153.48
2023-01-03T00:05:17.624Z,167.43
2023-01-03T00:07:46.567Z,225.23
2023-01-03T00:10:15.672Z,198.27
2023-01-03T00:12:43.687Z,209.82
2023-01-03T00:15:16.009Z,217.02
2023-01-03T00:17:45.530Z,211.52
2023-01-03T00:20:16.280Z,221.77
2023-01-03T00:22:45.391Z,207.48
2023-01-03T00:25:14.518Z,218.52
2023-01-03T00:27:43.743Z,222.10
2023-01-03T00:30:13.505Z,233.10
2023-01-03T00:32:42.633Z,223.80
2023-01-03T00:35:12.716Z,234.82
2023-01-03T00:37:43.587Z,256.38
2023-01-03T00:40:13.692Z,233.45
2023-01-03T00:43:00.245Z,230.35
2023-01-03T00:45:35.076Z,236.55
2023-01-03T00:48:04.962Z,239.10
2023-01-03T00:50:33.964Z,236.25
2023-01-03T00:53:04.916Z,225.15
2023-01-03T00:55:36.866Z,223.40
2023-01-03T00:58:06.052Z,206.15
2023-01-03T01:00:35.083Z,226.27
2023-01-03T01:03:04.198Z,207.25
2023-01-03T01:05:33.877Z,240.13
2023-01-03T01:08:04.169Z,242.48
2023-01-03T01:10:33.376Z,244.40
2023-01-03T01:13:02.382Z,263.00
2023-01-03T01:15:31.555Z,280.08
2023-01-03T01:18:00.727Z,256.15
2023-01-03T01:20:29.730Z,242.57
2023-01-03T01:22:58.922Z,231.95
2023-01-03T01:25:29.492Z,237.45
2023-01-03T01:27:58.693Z,211.27
2023-01-03T01:30:27.685Z,182.23
2023-01-03T01:32:56.762Z,175.35
2023-01-03T01:35:25.937Z,174.25
2023-01-03T01:37:54.936Z,175.90
2023-01-03T01:40:23.994Z,166.25
2023-01-03T01:43:26.403Z,158.63
2023-01-03T01:45:55.714Z,153.80
2023-01-03T01:48:24.976Z,140.18
2023-01-03T01:50:57.933Z,138.95
2023-01-03T01:53:31.530Z,140.50
2023-01-03T01:56:05.415Z,144.23
2023-01-03T01:58:41.489Z,140.55
2023-01-03T02:01:12.915Z,136.27
2023-01-03T02:03:44.553Z,122.53
2023-01-03T02:06:17.166Z,114.03
2023-01-03T02:09:05.113Z,145.15
2023-01-03T02:11:43.522Z,169.30
2023-01-03T02:14:44.402Z,178.55
2023-01-03T02:17:22.485Z,194.38
2023-01-03T02:20:28.356Z,199.60
2023-01-03T02:23:34.348Z,206.65
2023-01-03T02:26:38.000Z,223.60
2023-01-03T02:29:42.348Z,220.50
2023-01-03T02:32:16.966Z,226.35
2023-01-03T02:34:52.066Z,229.32
2023-01-03T02:37:30.581Z,217.75
2023-01-03T02:40:05.809Z,215.90
2023-01-03T02:43:02.338Z,214.07
2023-01-03T02:46:08.013Z,215.00
2023-01-03T02:48:48.418Z,221.98
2023-01-03T02:51:22.565Z,221.00
2023-01-03T02:53:52.994Z,215.50
2023-01-03T02:56:26.904Z,212.48
2023-01-03T02:59:18.840Z,199.20
2023-01-03T03:01:51.405Z,191.52
2023-01-03T03:04:23.153Z,190.82
2023-01-03T03:07:06.126Z,200.82
2023-01-03T03:09:55.274Z,191.65
2023-01-03T03:12:44.213Z,193.85
2023-01-03T03:15:16.052Z,191.27
2023-01-03T03:17:47.194Z,187.57
2023-01-03T03:20:37.096Z,192.88
2023-01-03T03:23:28.503Z,178.88
2023-01-03T03:26:00.651Z,161.50
2023-01-03T03:28:37.071Z,150.85
2023-01-03T03:31:10.816Z,121.32
2023-01-03T03:33:45.990Z,87.82
2023-01-03T03:36:21.299Z,72.50
2023-01-03T03:38:50.739Z,115.25
2023-01-03T03:41:43.365Z,134.98
2023-01-03T03:44:39.410Z,147.85
2023-01-03T03:47:17.655Z,138.32
2023-01-03T03:49:50.839Z,138.40
2023-01-03T03:52:25.731Z,134.63
2023-01-03T03:55:00.017Z,134.80
2023-01-03T03:57:33.893Z,113.78
2023-01-03T04:00:11.245Z,111.47
2023-01-03T04:02:47.168Z,117.68
2023-01-03T04:05:21.367Z,96.85
2023-01-03T04:07:51.878Z,93.07
2023-01-03T04:10:23.933Z,76.55
2023-01-03T04:12:53.984Z,80.03
2023-01-03T04:15:23.215Z,75.75
2023-01-03T04:17:52.391Z,64.88
2023-01-03T04:20:21.573Z,66.78
2023-01-03T04:23:00.200Z,72.18
2023-01-03T04:25:30.930Z,80.28
2023-01-03T04:27:59.918Z,84.72
2023-01-03T04:30:28.966Z,86.60
2023-01-03T04:32:57.980Z,84.35
2023-01-03T04:35:27.109Z,72.63
2023-01-03T04:37:57.701Z,67.32
2023-01-03T04:40:27.805Z,52.83
2023-01-03T04:43:14.769Z,63.78
2023-01-03T04:45:44.083Z,51.33
2023-01-03T04:48:13.191Z,68.60
2023-01-03T04:50:42.190Z,93.55
2023-01-03T04:53:15.220Z,79.88
2023-01-03T04:55:49.058Z,64.90
2023-01-03T04:58:18.238Z,64.85
2023-01-03T05:00:47.308Z,68.10
2023-01-03T05:03:21.246Z,62.67
2023-01-03T05:05:54.802Z,59.92
2023-01-03T05:08:26.190Z,67.90
2023-01-03T05:10:55.755Z,63.92
2023-01-03T05:13:24.881Z,69.43
2023-01-03T05:15:53.901Z,90.72
2023-01-03T05:18:22.870Z,110.80
2023-01-03T05:21:09.380Z,97.63
2023-01-03T05:24:15.685Z,113.80
2023-01-03T05:26:45.413Z,129.75
2023-01-03T05:29:17.938Z,142.70
2023-01-03T05:31:47.189Z,129.52
2023-01-03T05:34:16.657Z,109.40
2023-01-03T05:36:45.663Z,115.22
2023-01-03T05:39:16.341Z,119.55
2023-01-03T05:42:03.869Z,125.20
2023-01-03T05:44:34.407Z,124.80
2023-01-03T05:47:05.359Z,129.18
2023-01-03T05:49:35.839Z,156.15
2023-01-03T05:52:05.278Z,118.00
2023-01-03T05:54:35.865Z,95.45
2023-01-03T05:57:04.931Z,80.15
2023-01-03T05:59:34.044Z,141.15
2023-01-03T06:02:03.354Z,92.82
2023-01-03T06:04:32.494Z,84.45
2023-01-03T06:07:20.180Z,89.82
2023-01-03T06:09:50.659Z,92.60
2023-01-03T06:12:19.844Z,88.88
2023-01-03T06:14:48.817Z,109.05
2023-01-03T06:17:35.043Z,115.32
2023-01-03T06:20:04.446Z,78.50
2023-01-03T06:22:33.312Z,95.22
2023-01-03T06:25:03.847Z,82.78
2023-01-03T06:27:51.317Z,84.13
2023-01-03T06:30:21.127Z,100.20
2023-01-03T06:33:08.581Z,125.23
2023-01-03T06:35:40.430Z,139.63
2023-01-03T06:38:10.118Z,122.13
2023-01-03T06:40:45.600Z,127.77
2023-01-03T06:43:14.858Z,101.97
2023-01-03T06:46:02.658Z,81.97
2023-01-03T06:48:49.146Z,72.40
2023-01-03T06:51:39.093Z,61.63
2023-01-03T06:54:08.933Z,65.30
2023-01-03T06:56:39.400Z,45.00
2023-01-03T06:59:08.697Z,52.23
2023-01-03T07:01:37.905Z,49.13
2023-01-03T07:04:07.243Z,46.73
2023-01-03T07:06:36.379Z,53.10
2023-01-03T07:09:05.407Z,51.57
2023-01-03T07:11:34.752Z,57.87
2023-01-03T07:14:04.612Z,90.13
2023-01-03T07:16:35.624Z,65.53
2023-01-03T07:19:05.254Z,46.83
2023-01-03T07:21:36.158Z,54.33
2023-01-03T07:24:23.681Z,57.70
2023-01-03T07:26:52.746Z,108.50
2023-01-03T07:29:23.380Z,48.70
2023-01-03T07:31:52.477Z,48.67
2023-01-03T07:34:21.635Z,48.80
2023-01-03T07:36:50.688Z,67.63
2023-01-03T07:39:20.635Z,54.23
2023-01-03T07:42:07.175Z,46.13
2023-01-03T07:44:37.640Z,61.77
2023-01-03T07:47:06.768Z,41.03
2023-01-03T07:49:35.672Z,40.20
2023-01-03T07:52:04.831Z,40.43
2023-01-03T07:54:33.904Z,37.07
2023-01-03T07:57:02.953Z,40.10
2023-01-03T07:59:31.980Z,41.47
2023-01-03T08:02:02.412Z,32.43
2023-01-03T08:04:31.826Z,48.63
2023-01-03T08:07:00.899Z,36.20
2023-01-03T08:09:47.292Z,44.70
2023-01-03T08:12:38.948Z,38.90
2023-01-03T08:15:08.922Z,37.80
2023-01-03T08:17:39.543Z,28.80
2023-01-03T08:20:10.108Z,26.43
2023-01-03T08:22:39.390Z,37.03
2023-01-03T08:25:08.832Z,33.40
2023-01-03T08:27:38.051Z,31.03
2023-01-03T08:30:08.385Z,38.90
2023-01-03T08:32:39.063Z,33.90
2023-01-03T08:35:09.818Z,40.60
2023-01-03T08:37:39.054Z,38.30
2023-01-03T08:40:09.345Z,31.50
2023-01-03T08:42:39.136Z,29.97
2023-01-03T08:45:12.865Z,41.87
2023-01-03T08:47:44.329Z,28.50
2023-01-03T08:50:14.319Z,38.70
2023-01-03T08:52:43.391Z,26.90
2023-01-03T08:55:12.494Z,34.93
2023-01-03T08:57:41.789Z,29.40
2023-01-03T09:00:12.239Z,39.97
2023-01-03T09:02:42.985Z,35.00
2023-01-03T09:05:12.566Z,37.13
2023-01-03T09:07:41.599Z,38.30
2023-01-03T09:10:11.438Z,56.07
2023-01-03T09:12:40.769Z,43.83
2023-01-03T09:15:10.576Z,49.17
2023-01-03T09:17:42.508Z,83.37
2023-01-03T09:20:14.338Z,75.93
2023-01-03T09:22:43.524Z,91.60
2023-01-03T09:25:12.654Z,94.47
2023-01-03T09:27:45.666Z,73.43
2023-01-03T09:30:15.126Z,77.87
2023-01-03T09:32:44.447Z,65.77
2023-01-03T09:35:14.801Z,61.80
2023-01-03T09:37:48.619Z,71.53
2023-01-03T09:40:18.335Z,64.63
2023-01-03T09:43:24.941Z,57.23
2023-01-03T09:45:58.440Z,51.23
2023-01-03T09:48:32.136Z,37.27
2023-01-03T09:51:19.816Z,53.97
2023-01-03T09:54:10.567Z,56.70
2023-01-03T09:57:15.606Z,72.10
2023-01-03T10:00:01.991Z,74.13
2023-01-03T10:03:21.786Z,41.20
2023-01-03T10:06:06.717Z,66.63
2023-01-03T10:08:46.007Z,60.93
2023-01-03T10:11:23.383Z,50.43
2023-01-03T10:14:07.318Z,33.67
2023-01-03T10:16:49.050Z,31.23
2023-01-03T10:19:40.664Z,26.90
2023-01-03T10:22:14.782Z,53.33
2023-01-03T10:24:47.142Z,63.13
2023-01-03T10:27:18.512Z,38.63
2023-01-03T10:29:49.476Z,35.00
2023-01-03T10:32:34.312Z,55.47
2023-01-03T10:35:20.795Z,28.33
2023-01-03T10:37:54.134Z,30.87
2023-01-03T10:40:34.949Z,47.07
2023-01-03T10:43:17.159Z,50.47
2023-01-03T10:45:54.277Z,64.93
2023-01-03T10:48:23.854Z,27.73
2023-01-03T10:50:53.885Z,34.97
2023-01-03T10:53:24.908Z,30.80
2023-01-03T10:55:55.990Z,34.40
2023-01-03T10:58:32.164Z,37.83
2023-01-03T11:01:22.602Z,56.40
2023-01-03T11:04:10.791Z,28.30
2023-01-03T11:06:40.058Z,25.90
2023-01-03T11:09:13.684Z,36.67
2023-01-03T11:11:44.594Z,48.90
2023-01-03T11:14:23.401Z,28.83
2023-01-03T11:16:56.825Z,36.30
2023-01-03T11:19:30.051Z,24.37
2023-01-03T11:22:06.721Z,26.10
2023-01-03T11:24:53.095Z,28.63
2023-01-03T11:27:36.335Z,28.10
2023-01-03T11:30:21.210Z,29.23
2023-01-03T11:33:05.611Z,39.77
2023-01-03T11:35:48.701Z,38.70
2023-01-03T11:38:33.202Z,33.63
2023-01-03T11:41:21.394Z,37.33
2023-01-03T11:44:05.237Z,44.17
2023-01-03T11:46:52.611Z,35.30
2023-01-03T11:49:30.707Z,33.50
2023-01-03T11:52:18.367Z,51.33
2023-01-03T11:55:15.894Z,53.67
2023-01-03T11:57:55.813Z,41.77
2023-01-03T12:00:34.369Z,36.53
2023-01-03T12:03:13.407Z,26.60
2023-01-03T12:05:45.388Z,34.53
2023-01-03T12:08:46.241Z,37.87
2023-01-03T12:11:22.737Z,33.67
2023-01-03T12:14:01.615Z,29.57
2023-01-03T12:16:35.423Z,23.90
2023-01-03T12:19:12.520Z,30.47
2023-01-03T12:21:45.532Z,28.50
2023-01-03T12:24:19.448Z,23.97
2023-01-03T12:26:56.181Z,24.87
2023-01-03T12:29:32.217Z,34.83
2023-01-03T12:32:07.925Z,45.23
2023-01-03T12:34:44.479Z,43.23
2023-01-03T12:37:17.855Z,35.23
2023-01-03T12:39:55.783Z,29.83
2023-01-03T12:42:37.380Z,26.70
2023-01-03T12:45:23.091Z,24.23
2023-01-03T12:47:56.305Z,31.50
2023-01-03T12:50:31.957Z,25.80
2023-01-03T12:53:07.466Z,42.10
2023-01-03T12:56:22.281Z,34.23
2023-01-03T12:59:07.198Z,33.00
2023-01-03T13:01:42.608Z,23.80
2023-01-03T13:04:23.381Z,33.50
2023-01-03T13:06:58.642Z,27.90
2023-01-03T13:09:32.341Z,31.07
2023-01-03T13:12:07.084Z,32.93
2023-01-03T13:14:55.028Z,48.47
2023-01-03T13:17:27.679Z,27.37
2023-01-03T13:20:00.620Z,28.77
2023-01-03T13:22:52.219Z,49.73
2023-01-03T13:25:41.992Z,58.17
2023-01-03T13:28:32.108Z,30.90
2023-01-03T13:31:45.836Z,29.57
2023-01-03T13:34:40.279Z,29.93
2023-01-03T13:37:18.732Z,40.70
2023-01-03T13:40:02.103Z,66.87
2023-01-03T13:42:36.519Z,32.83
2023-01-03T13:45:56.567Z,44.97
2023-01-03T13:48:39.406Z,54.63
2023-01-03T13:51:47.219Z,56.50
2023-01-03T13:55:06.815Z,78.70
2023-01-03T13:57:53.103Z,76.93
2023-01-03T14:00:24.549Z,94.27
2023-01-03T14:03:23.030Z,75.03
2023-01-03T14:06:02.185Z,74.47
2023-01-03T14:08:44.680Z,113.63
2023-01-03T14:11:34.513Z,138.50
2023-01-03T14:14:08.184Z,127.27
2023-01-03T14:16:46.872Z,121.63
2023-01-03T14:19:22.956Z,139.33
2023-01-03T14:21:56.996Z,151.97
2023-01-03T14:24:31.651Z,85.07
2023-01-03T14:27:11.617Z,79.23
2023-01-03T14:29:50.875Z,119.23
2023-01-03T14:32:41.173Z,176.87
2023-01-03T14:35:37.785Z,138.03
2023-01-03T14:38:07.589Z,128.70
2023-01-03T14:40:38.352Z,151.63
2023-01-03T14:43:07.540Z,137.47
2023-01-03T14:45:37.891Z,138.07
2023-01-03T14:48:08.179Z,141.63
2023-01-03T14:50:37.471Z,152.87
2023-01-03T14:53:06.969Z,156.10
2023-01-03T14:55:37.731Z,167.90
2023-01-03T14:58:23.925Z,148.87
2023-01-03T15:01:00.021Z,154.87
2023-01-03T15:03:59.306Z,153.63
2023-01-03T15:06:31.023Z,163.10
2023-01-03T15:09:01.662Z,173.77
2023-01-03T15:12:00.762Z,256.63
2023-01-03T15:14:31.729Z,284.87
2023-01-03T15:17:13.782Z,243.33
2023-01-03T15:19:50.592Z,288.87
2023-01-03T15:22:23.542Z,253.20
2023-01-03T15:25:01.014Z,244.30
2023-01-03T15:27:43.117Z,254.83
2023-01-03T15:30:35.644Z,194.00
2023-01-03T15:33:20.315Z,214.07
2023-01-03T15:35:52.092Z,181.73
2023-01-03T15:38:32.203Z,165.30
2023-01-03T15:41:02.427Z,137.67
2023-01-03T15:43:37.883Z,142.63
2023-01-03T15:46:12.703Z,166.93
2023-01-03T15:48:45.594Z,196.27
2023-01-03T15:51:14.869Z,159.03
2023-01-03T15:53:44.964Z,188.63
2023-01-03T15:56:20.251Z,173.87
2023-01-03T15:58:52.806Z,176.60
2023-01-03T16:01:23.075Z,171.83
2023-01-03T16:03:53.684Z,180.20
2023-01-03T16:06:23.215Z,203.70
2023-01-03T16:08:53.055Z,187.20
2023-01-03T16:11:33.846Z,177.07
2023-01-03T16:14:14.501Z,153.27
2023-01-03T16:16:46.738Z,150.93
2023-01-03T16:19:21.034Z,158.23
2023-01-03T16:22:09.387Z,139.67
2023-01-03T16:24:40.716Z,131.57
2023-01-03T16:27:15.259Z,145.13
2023-01-03T16:29:45.852Z,149.73
2023-01-03T16:32:20.929Z,152.17
2023-01-03T16:34:50.514Z,193.97
2023-01-03T16:37:19.645Z,143.43
2023-01-03T16:39:49.278Z,152.47
2023-01-03T16:42:19.246Z,138.57
2023-01-03T16:44:50.199Z,168.30
2023-01-03T16:47:23.645Z,218.17
2023-01-03T16:49:58.129Z,198.90
2023-01-03T16:52:49.067Z,158.67
2023-01-03T16:55:21.485Z,147.23
2023-01-03T16:57:54.492Z,119.90
2023-01-03T17:00:27.639Z,122.43
2023-01-03T17:02:59.671Z,89.23
2023-01-03T17:05:29.806Z,82.30
2023-01-03T17:08:03.276Z,71.30
2023-01-03T17:10:35.879Z,78.60
2023-01-03T17:13:12.370Z,72.70
2023-01-03T17:15:46.050Z,65.17
2023-01-03T17:18:20.198Z,68.87
2023-01-03T17:20:54.287Z,83.50
2023-01-03T17:23:23.959Z,82.27
2023-01-03T17:25:53.381Z,94.17
2023-01-03T17:28:22.882Z,101.23
2023-01-03T17:30:56.832Z,86.17
2023-01-03T17:33:45.178Z,88.90
2023-01-03T17:36:15.775Z,100.00
2023-01-03T17:38:45.699Z,85.10
2023-01-03T17:41:19.209Z,87.83
2023-01-03T17:43:48.877Z,108.97
2023-01-03T17:46:41.148Z,100.00
2023-01-03T17:49:27.182Z,104.33
2023-01-03T17:51:58.667Z,122.93
2023-01-03T17:54:29.652Z,102.97
2023-01-03T17:56:59.939Z,101.13
2023-01-03T17:59:29.227Z,104.67
2023-01-03T18:01:59.933Z,93.80
2023-01-03T18:04:50.116Z,98.63
2023-01-03T18:07:26.101Z,87.67
2023-01-03T18:09:56.834Z,105.93
2023-01-03T18:12:27.025Z,120.40
2023-01-03T18:15:19.057Z,126.53
2023-01-03T18:17:50.479Z,103.13
2023-01-03T18:20:20.932Z,91.73
2023-01-03T18:22:50.779Z,92.40
2023-01-03T18:25:23.111Z,94.30
2023-01-03T18:27:54.672Z,84.33
2023-01-03T18:30:23.772Z,85.80
2023-01-03T18:32:54.503Z,79.50
2023-01-03T18:35:32.405Z,88.73
2023-01-03T18:38:05.874Z,93.70
2023-01-03T18:40:35.929Z,92.73
2023-01-03T18:43:13.865Z,89.83
2023-01-03T18:45:43.751Z,81.03
2023-01-03T18:48:17.308Z,94.50
2023-01-03T18:50:53.683Z,83.30
2023-01-03T18:53:31.364Z,84.63
2023-01-03T18:56:01.300Z,83.10
2023-01-03T18:58:35.830Z,87.90
2023-01-03T19:01:07.578Z,84.27
2023-01-03T19:03:42.771Z,105.57
2023-01-03T19:06:20.211Z,107.23
2023-01-03T19:08:50.045Z,107.80
2023-01-03T19:11:23.747Z,103.93
2023-01-03T19:13:55.280Z,97.10
2023-01-03T19:16:26.209Z,93.30
2023-01-03T19:18:57.631Z,97.87
2023-01-03T19:21:31.850Z,102.20
2023-01-03T19:24:04.613Z,130.73
2023-01-03T19:26:38.720Z,120.83
2023-01-03T19:29:09.654Z,123.80
2023-01-03T19:31:58.543Z,142.80
2023-01-03T19:34:29.267Z,160.83
2023-01-03T19:36:59.535Z,139.93
2023-01-03T19:39:33.641Z,143.63
2023-01-03T19:42:39.116Z,150.47
2023-01-03T19:45:29.061Z,172.00
2023-01-03T19:48:00.355Z,186.23
2023-01-03T19:50:33.395Z,181.43
2023-01-03T19:53:03.454Z,186.00
2023-01-03T19:55:34.691Z,156.30
2023-01-03T19:58:07.117Z,144.37
2023-01-03T20:00:37.294Z,136.77
2023-01-03T20:03:09.587Z,158.47
2023-01-03T20:05:40.377Z,131.73
2023-01-03T20:08:12.516Z,124.53
2023-01-03T20:10:43.821Z,121.00
2023-01-03T20:13:19.245Z,108.43
2023-01-03T20:15:50.211Z,111.40
2023-01-03T20:18:30.653Z,131.63
2023-01-03T20:21:05.611Z,105.93
2023-01-03T20:23:38.031Z,120.10
2023-01-03T20:26:08.602Z,122.50
2023-01-03T20:28:38.158Z,120.73
2023-01-03T20:31:08.213Z,122.33
2023-01-03T20:33:37.855Z,130.23
2023-01-03T20:36:17.934Z,123.57
2023-01-03T20:38:53.178Z,131.57
2023-01-03T20:41:36.607Z,148.20
2023-01-03T20:44:08.599Z,140.43
2023-01-03T20:46:39.157Z,173.05
2023-01-03T20:49:29.265Z,164.27
2023-01-03T20:51:59.868Z,156.57
2023-01-03T20:54:28.998Z,170.43
2023-01-03T20:57:17.812Z,159.87
2023-01-03T20:59:47.001Z,166.20
2023-01-03T21:02:34.905Z,147.37
2023-01-03T21:05:04.137Z,159.53
2023-01-03T21:07:48.409Z,135.17
2023-01-03T21:10:24.539Z,121.50
2023-01-03T21:12:53.753Z,123.38
2023-01-03T21:15:22.860Z,126.50
2023-01-03T21:17:51.908Z,145.30
2023-01-03T21:20:23.780Z,139.40
2023-01-03T21:22:54.866Z,130.27
2023-01-03T21:25:27.411Z,142.48
2023-01-03T21:27:57.070Z,147.32
2023-01-03T21:30:27.481Z,152.90
2023-01-03T21:32:57.237Z,154.90
2023-01-03T21:35:26.715Z,150.53
2023-01-03T21:37:57.577Z,158.07
2023-01-03T21:40:29.124Z,147.50
2023-01-03T21:43:05.084Z,132.93
2023-01-03T21:45:37.449Z,128.60
2023-01-03T21:48:08.558Z,134.60
2023-01-03T21:50:40.597Z,127.15
2023-01-03T21:53:14.054Z,129.05
2023-01-03T21:55:43.264Z,122.25
2023-01-03T21:58:15.197Z,119.75
2023-01-03T22:00:44.991Z,110.78
2023-01-03T22:03:31.745Z,104.20
2023-01-03T22:06:09.383Z,104.18
2023-01-03T22:08:40.080Z,111.05
2023-01-03T22:11:09.639Z,121.63
2023-01-03T22:13:38.881Z,102.32
2023-01-03T22:16:11.710Z,104.07
2023-01-03T22:18:41.246Z,103.03
2023-01-03T22:21:12.965Z,96.97
2023-01-03T22:23:47.421Z,105.97
2023-01-03T22:26:18.230Z,106.20
2023-01-03T22:28:48.592Z,121.18
2023-01-03T22:31:36.187Z,112.45
2023-01-03T22:34:05.351Z,119.03
2023-01-03T22:36:34.527Z,139.55
2023-01-03T22:39:05.057Z,147.13
2023-01-03T22:41:34.234Z,154.02
2023-01-03T22:44:03.275Z,182.13
2023-01-03T22:46:32.521Z,198.85
2023-01-03T22:49:01.686Z,196.50
2023-01-03T22:51:30.863Z,237.63
2023-01-03T22:54:00.210Z,216.90
2023-01-03T22:56:30.744Z,229.43
2023-01-03T22:58:59.922Z,214.88
2023-01-03T23:01:29.225Z,216.55
2023-01-03T23:04:01.423Z,240.18
2023-01-03T23:06:32.029Z,232.88
2023-01-03T23:09:05.555Z,252.52
2023-01-03T23:11:53.769Z,249.68
2023-01-03T23:14:24.504Z,249.65
2023-01-03T23:16:56.060Z,229.73
2023-01-03T23:19:27.432Z,230.75
2023-01-03T23:21:58.772Z,241.25
2023-01-03T23:24:28.022Z,229.02
2023-01-03T23:26:59.000Z,249.18
2023-01-03T23:29:28.542Z,256.90
2023-01-03T23:31:57.802Z,259.15
2023-01-03T23:34:26.833Z,253.80
2023-01-03T23:36:55.896Z,229.57
2023-01-03T23:39:24.953Z,247.75
2023-01-03T23:41:54.048Z,238.35
2023-01-03T23:44:24.672Z,246.63
2023-01-03T23:46:53.745Z,252.75
2023-01-03T23:49:22.631Z,225.48
2023-01-03T23:51:51.828Z,226.65
2023-01-03T23:54:20.883Z,168.35
2023-01-03T23:56:50.479Z,177.43
2023-01-03T23:59:19.836Z,194.65
